Time;durP1;ratioP1;P1;durP2;ratioP2;P2;SDS_P1;SDS_P2;PMS_P1;PMS_P2;Temp;Humidity;BMP_temperature;BMP_pressure;BME280_temperature;BME280_humidity;BME280_pressure;Samples;Min_cycle;Max_cycle;Signal;HPM_P1;HPM_P2
2023/07/09 00:01:18;;;;;;;10.63;6.78;;;;;;;23.39;58.48;100609.44;4972526;28;20127;-77
2023/07/09 00:03:51;;;;;;;9.30;6.07;;;;;;;23.41;58.65;100623.66;4990528;28;20050;-80
2023/07/09 00:06:18;;;;;;;10.55;6.28;;;;;;;23.40;58.99;100624.66;4984095;28;20495;-79
2023/07/09 00:08:48;;;;;;;9.52;6.05;;;;;;;23.25;58.86;100609.94;4976949;28;20582;-77
2023/07/09 00:11:16;;;;;;;9.23;6.00;;;;;;;23.40;59.42;100638.19;4987789;28;20053;-81
2023/07/09 00:13:43;;;;;;;10.18;5.88;;;;;;;23.20;59.69;100601.41;4991325;28;20046;-77
2023/07/09 00:16:29;;;;;;;10.65;5.60;;;;;;;23.33;60.10;100638.91;4978682;28;20047;-78
2023/07/09 00:18:56;;;;;;;9.68;5.68;;;;;;;23.21;60.63;100634.69;4979204;28;20092;-78
2023/07/09 00:21:23;;;;;;;11.52;5.70;;;;;;;23.08;61.03;100624.22;4986369;28;20050;-78
2023/07/09 00:23:50;;;;;;;9.40;5.82;;;;;;;23.16;61.27;100645.94;4984280;28;20050;-77
2023/07/09 00:26:23;;;;;;;8.70;5.00;;;;;;;23.10;61.19;100641.13;4988714;28;20416;-76
2023/07/09 00:28:50;;;;;;;9.00;5.00;;;;;;;23.02;61.32;100635.59;4991649;28;20068;-78
2023/07/09 00:31:17;;;;;;;9.98;5.45;;;;;;;23.04;61.93;100636.31;4987229;28;20046;-78
2023/07/09 00:33:46;;;;;;;8.70;4.80;;;;;;;23.07;61.84;100644.13;5001729;28;20255;-77
2023/07/09 00:36:20;;;;;;;7.40;5.05;;;;;;;23.02;61.42;100627.50;4985828;28;20100;-78
2023/07/09 00:38:47;;;;;;;7.20;5.05;;;;;;;23.11;61.38;100650.09;4986042;28;20046;-80
2023/07/09 00:41:21;;;;;;;9.40;5.35;;;;;;;23.02;61.64;100636.44;5003146;28;20128;-78
2023/07/09 00:43:49;;;;;;;9.07;5.63;;;;;;;23.02;62.09;100641.00;4982404;28;20043;-77
2023/07/09 00:46:19;;;;;;;7.68;4.63;;;;;;;23.00;62.30;100638.44;4998872;28;20133;-79
2023/07/09 00:48:49;;;;;;;8.43;5.07;;;;;;;22.96;62.54;100638.91;4985994;28;20042;-78
2023/07/09 00:51:20;;;;;;;6.85;4.70;;;;;;;22.90;63.16;100636.75;4985023;28;20147;-78
2023/07/09 00:53:51;;;;;;;6.65;4.70;;;;;;;22.87;63.89;100637.06;4998724;28;20105;-79
2023/07/09 00:56:30;;;;;;;7.70;5.10;;;;;;;22.61;64.34;100599.84;4987320;28;20046;-78
2023/07/09 00:59:00;;;;;;;7.38;4.95;;;;;;;22.72;64.66;100617.72;4991026;28;20050;-78
2023/07/09 01:01:27;;;;;;;7.53;5.30;;;;;;;22.52;64.80;100589.91;4990173;28;20046;-78
2023/07/09 01:03:59;;;;;;;8.48;5.03;;;;;;;22.71;65.04;100634.91;4987391;28;21172;-78
2023/07/09 01:06:38;;;;;;;11.68;5.38;;;;;;;22.49;65.35;100606.41;4996161;28;20050;-79
2023/07/09 01:09:06;;;;;;;7.72;4.72;;;;;;;22.67;65.85;100637.03;5012303;28;20140;-78
2023/07/09 01:11:34;;;;;;;7.28;4.88;;;;;;;22.65;66.44;100633.66;5001791;28;20084;-78
2023/07/09 01:14:05;;;;;;;9.35;5.50;;;;;;;22.57;66.50;100627.25;4986783;28;20046;-79
2023/07/09 01:16:37;;;;;;;9.40;6.10;;;;;;;22.36;67.06;100597.72;5005273;28;20052;-79
2023/07/09 01:19:05;;;;;;;9.98;5.93;;;;;;;22.46;67.36;100630.97;4992391;28;20050;-78
2023/07/09 01:21:32;;;;;;;9.52;6.00;;;;;;;22.40;67.36;100624.28;5008964;28;20159;-79
2023/07/09 01:24:14;;;;;;;7.43;5.28;;;;;;;22.43;68.37;100639.34;4988263;28;20180;-78
2023/07/09 01:26:41;;;;;;;9.30;5.45;;;;;;;22.44;68.87;100646.44;4989116;28;20041;-77
2023/07/09 01:29:07;;;;;;;8.52;5.93;;;;;;;22.24;69.05;100615.91;5007296;28;20046;-77
2023/07/09 01:31:35;;;;;;;10.10;5.55;;;;;;;22.25;69.67;100622.16;4993491;28;20041;-80
2023/07/09 01:34:02;;;;;;;7.32;5.53;;;;;;;22.34;70.31;100642.91;4985687;28;20112;-78
2023/07/09 01:36:29;;;;;;;14.23;6.00;;;;;;;22.31;69.95;100638.63;4983403;28;20572;-78
2023/07/09 01:38:56;;;;;;;7.65;5.25;;;;;;;22.32;69.92;100647.59;4987267;28;20045;-78
2023/07/09 01:41:23;;;;;;;9.35;5.68;;;;;;;22.33;69.89;100646.59;4989368;28;20050;-77
2023/07/09 01:43:50;;;;;;;8.90;5.68;;;;;;;22.23;69.29;100634.91;4983005;28;20066;-77
2023/07/09 01:46:16;;;;;;;6.88;5.00;;;;;;;22.34;68.69;100640.19;4999717;28;20149;-78
2023/07/09 01:48:44;;;;;;;8.40;5.35;;;;;;;22.24;68.92;100625.84;4990206;28;20048;-78
2023/07/09 01:51:18;;;;;;;10.48;5.65;;;;;;;22.30;69.41;100645.03;4986164;28;20119;-78
2023/07/09 01:53:45;;;;;;;9.13;5.72;;;;;;;22.19;70.15;100647.00;5002138;28;20048;-77
2023/07/09 01:56:11;;;;;;;8.00;5.78;;;;;;;22.07;71.45;100642.72;4984896;28;20042;-77
2023/07/09 01:58:41;;;;;;;8.85;5.18;;;;;;;22.08;72.62;100649.81;5005363;28;20578;-78
2023/07/09 02:01:09;;;;;;;9.68;6.43;;;;;;;22.01;72.42;100654.94;4990672;28;20050;-78
2023/07/09 02:03:36;;;;;;;7.32;5.53;;;;;;;21.95;72.60;100650.91;4987779;28;20136;-79
2023/07/09 02:06:09;;;;;;;8.18;5.85;;;;;;;21.89;73.74;100655.97;4983733;28;20129;-79
2023/07/09 02:08:37;;;;;;;7.45;5.40;;;;;;;21.88;74.73;100660.50;5007169;28;20582;-77
2023/07/09 02:11:04;;;;;;;5.95;4.50;;;;;;;21.81;74.85;100650.44;4996638;28;20459;-78
2023/07/09 02:13:30;;;;;;;8.50;5.20;;;;;;;21.85;75.54;100650.03;4999087;28;20069;-78
2023/07/09 02:15:57;;;;;;;6.78;5.00;;;;;;;21.71;73.84;100628.84;4996357;28;20109;-79
2023/07/09 02:18:24;;;;;;;8.77;5.20;;;;;;;21.90;73.23;100658.53;5017795;28;20114;-77
2023/07/09 02:20:51;;;;;;;7.07;5.10;;;;;;;21.83;72.87;100646.63;5000223;28;20049;-78
2023/07/09 02:23:17;;;;;;;9.27;5.10;;;;;;;21.94;73.06;100657.28;4995009;28;20533;-77
2023/07/09 02:25:44;;;;;;;8.52;4.70;;;;;;;21.89;72.78;100653.28;4994055;28;20109;-77
2023/07/09 02:28:10;;;;;;;8.00;5.28;;;;;;;21.87;72.64;100639.13;5002202;28;20114;-77
2023/07/09 02:30:37;;;;;;;7.75;5.55;;;;;;;21.96;73.09;100660.69;5000722;28;20117;-79
2023/07/09 02:33:04;;;;;;;7.15;4.90;;;;;;;21.88;72.11;100655.13;5001210;28;20128;-78
2023/07/09 02:35:30;;;;;;;7.85;5.18;;;;;;;21.86;72.75;100646.34;4989501;28;20466;-78
2023/07/09 02:37:57;;;;;;;7.63;5.18;;;;;;;21.98;72.60;100664.09;4989931;28;20060;-78
2023/07/09 02:40:23;;;;;;;9.48;5.22;;;;;;;21.95;72.15;100660.81;4987443;28;20046;-79
2023/07/09 02:42:50;;;;;;;7.38;5.18;;;;;;;21.89;72.10;100661.38;4987522;28;20046;-77
2023/07/09 02:45:17;;;;;;;9.70;4.93;;;;;;;21.90;72.08;100658.53;4976244;28;20055;-79
2023/07/09 02:47:43;;;;;;;9.07;5.97;;;;;;;21.76;71.92;100640.06;5011127;28;20516;-77
2023/07/09 02:50:10;;;;;;;7.55;5.53;;;;;;;21.80;71.95;100644.19;4990276;28;20054;-78
2023/07/09 02:52:37;;;;;;;8.75;5.28;;;;;;;21.88;72.16;100665.91;4980079;28;20058;-78
2023/07/09 02:55:04;;;;;;;8.07;5.43;;;;;;;21.93;72.34;100663.66;4976636;28;20046;-78
2023/07/09 02:57:30;;;;;;;9.55;5.55;;;;;;;21.92;72.11;100659.25;4994110;28;20427;-78
2023/07/09 02:59:57;;;;;;;9.50;5.63;;;;;;;22.00;72.26;100677.50;4983563;28;20606;-77
2023/07/09 03:02:24;;;;;;;10.60;6.10;;;;;;;22.00;71.48;100674.78;4987528;28;20474;-77
2023/07/09 03:04:50;;;;;;;7.68;5.43;;;;;;;21.96;71.61;100674.19;4984800;28;20168;-78
2023/07/09 03:07:17;;;;;;;8.18;5.45;;;;;;;22.01;71.59;100692.69;4983344;28;20042;-79
2023/07/09 03:09:43;;;;;;;8.23;5.55;;;;;;;21.81;71.89;100656.69;4997038;28;20116;-79
2023/07/09 03:12:10;;;;;;;8.80;5.55;;;;;;;21.64;72.47;100641.16;5009713;28;20056;-79
2023/07/09 03:14:37;;;;;;;8.63;5.30;;;;;;;21.85;73.29;100686.94;5010076;28;20741;-78
2023/07/09 03:17:03;;;;;;;6.75;5.03;;;;;;;21.82;74.44;100697.97;4980961;28;20459;-79
2023/07/09 03:19:31;;;;;;;8.45;5.32;;;;;;;21.70;75.32;100690.00;4989656;28;20050;-79
2023/07/09 03:22:00;;;;;;;10.48;5.75;;;;;;;21.58;76.23;100687.50;4985592;28;20054;-78
2023/07/09 03:24:27;;;;;;;9.65;5.82;;;;;;;21.52;77.79;100688.06;4984142;28;20930;-78
2023/07/09 03:26:53;;;;;;;10.02;5.38;;;;;;;21.34;79.41;100677.06;4981748;28;20718;-79
2023/07/09 03:29:20;;;;;;;9.38;5.43;;;;;;;21.40;80.20;100699.94;4985227;28;20077;-78
2023/07/09 03:31:49;;;;;;;7.90;5.45;;;;;;;21.27;80.92;100700.97;4983033;28;20479;-78
2023/07/09 03:34:15;;;;;;;8.60;5.28;;;;;;;21.22;81.48;100705.94;4983769;28;20056;-78
2023/07/09 03:36:43;;;;;;;9.07;6.03;;;;;;;21.10;81.75;100695.31;4979563;28;20050;-78
2023/07/09 03:39:11;;;;;;;9.05;5.63;;;;;;;20.90;82.32;100679.03;4967790;28;20046;-79
2023/07/09 03:41:37;;;;;;;9.90;6.05;;;;;;;20.78;82.08;100660.41;4984434;28;20046;-77
2023/07/09 03:44:04;;;;;;;12.38;5.60;;;;;;;21.07;81.91;100706.38;4983536;28;20049;-79
2023/07/09 03:46:30;;;;;;;12.38;5.20;;;;;;;21.11;81.08;100714.03;4979660;28;20690;-79
2023/07/09 03:48:58;;;;;;;8.65;5.10;;;;;;;21.14;80.99;100716.47;4984354;28;20042;-77
2023/07/09 03:51:25;;;;;;;10.23;5.32;;;;;;;20.83;83.44;100682.38;4980206;28;20050;-77
2023/07/09 03:53:52;;;;;;;7.85;5.38;;;;;;;20.87;85.61;100721.50;4986559;28;20050;-79
2023/07/09 03:56:18;;;;;;;10.27;5.57;;;;;;;20.78;87.00;100716.94;4994606;28;20047;-77
2023/07/09 03:58:46;;;;;;;10.40;6.00;;;;;;;20.61;87.79;100689.59;4990223;28;20053;-78
2023/07/09 04:01:12;;;;;;;11.30;5.80;;;;;;;20.64;88.31;100712.69;4994990;28;20070;-77
2023/07/09 04:03:39;;;;;;;8.93;5.53;;;;;;;20.63;88.51;100714.50;5000708;28;20050;-78
2023/07/09 04:06:05;;;;;;;7.65;5.45;;;;;;;20.59;89.07;100704.16;4995896;28;20133;-79
2023/07/09 04:08:32;;;;;;;8.00;5.38;;;;;;;20.67;89.58;100718.66;4992797;28;20066;-76
2023/07/09 04:11:00;;;;;;;8.75;6.03;;;;;;;20.63;90.16;100719.88;4999249;28;20133;-79
2023/07/09 04:13:28;;;;;;;7.38;5.25;;;;;;;20.71;90.40;100726.47;4989977;28;20136;-78
2023/07/09 04:15:55;;;;;;;9.63;5.85;;;;;;;20.71;90.20;100727.34;4988865;28;20043;-79
2023/07/09 04:18:22;;;;;;;9.02;5.40;;;;;;;20.70;89.74;100727.47;4993255;28;20105;-78
2023/07/09 04:20:50;;;;;;;7.50;5.57;;;;;;;20.75;89.97;100731.50;4985956;28;20050;-78
2023/07/09 04:23:17;;;;;;;7.95;5.40;;;;;;;20.64;88.91;100708.16;4988058;28;20046;-79
2023/07/09 04:25:44;;;;;;;8.18;5.10;;;;;;;20.69;89.08;100698.84;4982021;28;20046;-79
2023/07/09 04:28:10;;;;;;;10.73;5.97;;;;;;;20.89;88.50;100715.03;5003844;28;20101;-79
2023/07/09 04:30:37;;;;;;;8.65;5.30;;;;;;;20.91;87.38;100713.06;4986740;28;20129;-78
2023/07/09 04:33:03;;;;;;;10.57;5.63;;;;;;;21.11;86.85;100729.31;4987839;28;20046;-77
2023/07/09 04:35:30;;;;;;;8.88;5.55;;;;;;;21.14;86.75;100734.44;4983368;28;20046;-77
2023/07/09 04:37:56;;;;;;;8.23;5.00;;;;;;;21.19;85.59;100721.47;5005041;28;20121;-77
2023/07/09 04:40:23;;;;;;;7.85;5.20;;;;;;;21.31;85.33;100742.81;4989874;28;20133;-77
2023/07/09 04:42:50;;;;;;;9.57;5.28;;;;;;;21.06;85.13;100686.66;4987351;28;20077;-77
2023/07/09 04:45:17;;;;;;;8.23;5.22;;;;;;;21.31;85.98;100734.75;4982788;28;20477;-78
2023/07/09 04:47:44;;;;;;;10.20;5.25;;;;;;;21.28;87.42;100726.94;4982511;28;20074;-78
2023/07/09 04:50:11;;;;;;;10.80;5.60;;;;;;;21.34;85.21;100726.41;4982468;28;20046;-79
2023/07/09 04:52:38;;;;;;;6.78;5.40;;;;;;;21.48;85.24;100737.81;5002011;28;20134;-79
2023/07/09 04:55:05;;;;;;;9.05;5.30;;;;;;;21.53;84.87;100727.50;4983102;28;20112;-77
2023/07/09 04:57:31;;;;;;;9.48;5.15;;;;;;;21.44;84.31;100702.19;4985081;28;20049;-79
2023/07/09 04:59:58;;;;;;;7.43;4.85;;;;;;;21.46;83.95;100712.84;4989098;28;20046;-77
2023/07/09 05:02:25;;;;;;;7.32;4.85;;;;;;;21.61;84.97;100722.28;4989348;28;20052;-77
2023/07/09 05:04:52;;;;;;;9.80;5.32;;;;;;;21.63;83.46;100712.22;4994253;28;20068;-77
2023/07/09 05:07:18;;;;;;;10.38;5.20;;;;;;;21.61;84.23;100706.13;4982704;28;20050;-79
2023/07/09 05:09:45;;;;;;;9.00;5.38;;;;;;;21.66;83.50;100707.41;4990872;28;20050;-80
2023/07/09 05:12:11;;;;;;;7.50;5.78;;;;;;;21.74;84.18;100706.72;5009103;28;20052;-78
2023/07/09 05:14:39;;;;;;;7.28;5.45;;;;;;;21.89;84.44;100726.94;4992249;28;20060;-78
2023/07/09 05:17:07;;;;;;;8.32;5.55;;;;;;;21.69;83.83;100669.44;5009523;28;20062;-79
2023/07/09 05:19:33;;;;;;;10.65;5.75;;;;;;;22.03;83.79;100721.22;5006815;28;20046;-81
2023/07/09 05:22:00;;;;;;;8.82;5.97;;;;;;;21.91;83.55;100692.59;5002716;28;20046;-79
2023/07/09 05:24:27;;;;;;;12.02;6.57;;;;;;;21.89;83.30;100683.78;5002271;28;20069;-79
2023/07/09 05:26:55;;;;;;;9.50;6.10;;;;;;;22.13;84.23;100712.28;4996389;28;20050;-79
2023/07/09 05:29:22;;;;;;;9.77;6.40;;;;;;;22.11;85.58;100692.69;4986113;28;20080;-77
2023/07/09 05:31:49;;;;;;;7.25;5.53;;;;;;;22.33;84.79;100730.22;5000429;28;20506;-80
2023/07/09 05:34:15;;;;;;;7.85;6.18;;;;;;;22.22;84.43;100696.13;4987167;28;20046;-77
2023/07/09 05:36:42;;;;;;;6.35;5.53;;;;;;;22.51;84.01;100714.22;4991246;28;20507;-78
2023/07/09 05:39:09;;;;;;;12.38;6.45;;;;;;;22.64;81.09;100721.03;4986072;28;20136;-79
2023/07/09 05:41:35;;;;;;;9.68;5.90;;;;;;;22.44;81.02;100673.44;4999758;28;20051;-80
2023/07/09 05:44:02;;;;;;;9.43;6.35;;;;;;;22.83;80.77;100722.03;4982982;28;20130;-77
2023/07/09 05:46:35;;;;;;;10.02;5.82;;;;;;;22.95;80.62;100729.00;4982257;28;20050;-79
2023/07/09 05:49:05;;;;;;;9.15;6.55;;;;;;;23.07;78.62;100726.00;4983970;28;20062;-79
2023/07/09 05:51:31;;;;;;;12.55;6.57;;;;;;;23.04;78.48;100704.69;4984255;28;20081;-76
2023/07/09 05:53:58;;;;;;;8.63;6.38;;;;;;;23.25;78.96;100726.13;4996504;28;20061;-79
2023/07/09 05:56:25;;;;;;;9.45;6.30;;;;;;;23.02;77.56;100678.81;4980099;28;20053;-80
2023/07/09 05:58:52;;;;;;;9.88;6.45;;;;;;;23.39;77.42;100730.22;4984786;28;20134;-78
2023/07/09 06:01:20;;;;;;;11.57;7.03;;;;;;;23.16;77.27;100678.34;4984977;28;20524;-78
2023/07/09 06:03:47;;;;;;;9.88;6.68;;;;;;;23.56;76.79;100731.34;4984457;28;20058;-78
2023/07/09 06:06:16;;;;;;;10.57;7.28;;;;;;;23.32;76.98;100675.88;4978758;28;20567;-79
2023/07/09 06:08:42;;;;;;;9.77;6.65;;;;;;;23.79;76.47;100740.78;4983753;28;20456;-78
2023/07/09 06:11:09;;;;;;;8.93;6.50;;;;;;;23.87;74.75;100734.63;4986370;28;20054;-78
2023/07/09 06:13:35;;;;;;;8.70;6.38;;;;;;;24.09;73.50;100735.06;4981634;28;20054;-76
2023/07/09 06:16:02;;;;;;;10.07;6.53;;;;;;;24.20;71.85;100727.78;4976305;28;20042;-76
2023/07/09 06:18:30;;;;;;;12.63;7.00;;;;;;;24.45;71.73;100730.63;4986929;28;20176;-78
2023/07/09 06:20:59;;;;;;;9.63;7.47;;;;;;;24.78;68.06;100741.78;4985414;28;20073;-78
2023/07/09 06:23:26;;;;;;;10.98;6.65;;;;;;;24.85;66.71;100709.50;4985164;28;20073;-79
2023/07/09 06:25:53;;;;;;;9.68;6.45;;;;;;;25.36;64.93;100742.09;4987907;28;20046;-76
2023/07/09 06:28:22;;;;;;;9.25;6.57;;;;;;;25.82;62.86;100742.75;4979368;28;20054;-80
2023/07/09 06:30:49;;;;;;;9.55;6.35;;;;;;;26.27;59.06;100742.44;4982742;28;20057;-77
2023/07/09 06:33:18;;;;;;;8.50;6.55;;;;;;;26.58;56.40;100712.84;4985153;28;20415;-77
2023/07/09 06:35:51;;;;;;;10.45;6.55;;;;;;;27.21;55.41;100748.41;4980821;28;20039;-78
2023/07/09 06:38:18;;;;;;;9.88;6.50;;;;;;;27.59;53.20;100745.97;4998870;28;20053;-78
2023/07/09 06:40:45;;;;;;;8.88;6.55;;;;;;;27.83;53.00;100735.03;4984841;28;20050;-77
2023/07/09 06:43:12;;;;;;;10.77;6.50;;;;;;;27.87;51.71;100713.72;4992596;28;20081;-78
2023/07/09 06:45:47;;;;;;;8.32;5.80;;;;;;;28.18;51.24;100722.78;5004911;28;20047;-78
2023/07/09 06:48:14;;;;;;;11.60;6.28;;;;;;;28.46;48.99;100720.47;4982215;28;20129;-77
2023/07/09 06:50:40;;;;;;;10.13;6.05;;;;;;;28.81;48.71;100748.16;4977681;28;20066;-78
2023/07/09 06:53:07;;;;;;;8.98;5.82;;;;;;;28.94;46.08;100724.75;4986614;28;20125;-77
2023/07/09 06:55:33;;;;;;;12.18;5.95;;;;;;;29.00;45.66;100711.38;5002471;28;20101;-78
2023/07/09 06:58:00;;;;;;;7.07;5.40;;;;;;;29.45;46.69;100752.25;4979419;28;20052;-77
2023/07/09 07:00:28;;;;;;;10.65;6.03;;;;;;;29.66;45.90;100743.34;4984702;28;20069;-77
2023/07/09 07:02:55;;;;;;;10.48;6.15;;;;;;;29.81;45.31;100752.38;4978186;28;20049;-77
2023/07/09 07:05:21;;;;;;;9.50;6.38;;;;;;;29.69;46.01;100706.63;4978779;28;20503;-78
2023/07/09 07:07:48;;;;;;;8.18;6.03;;;;;;;29.94;44.28;100758.00;4982638;28;20046;-79
2023/07/09 07:10:14;;;;;;;7.78;5.72;;;;;;;30.04;44.82;100740.53;4982967;28;20069;-79
2023/07/09 07:12:44;;;;;;;8.95;5.82;;;;;;;30.18;43.87;100745.97;4982336;28;20454;-80
2023/07/09 07:15:13;;;;;;;9.43;6.40;;;;;;;30.03;45.31;100731.50;4978997;28;20052;-79
2023/07/09 07:17:40;;;;;;;10.60;6.18;;;;;;;30.00;43.92;100735.44;4992018;28;20774;-80
2023/07/09 07:20:08;;;;;;;7.25;5.78;;;;;;;30.03;44.38;100727.91;4982161;28;20050;-78
2023/07/09 07:22:34;;;;;;;9.10;5.88;;;;;;;30.04;45.06;100749.59;4988718;28;20128;-77
2023/07/09 07:25:01;;;;;;;11.15;6.40;;;;;;;30.05;43.77;100754.00;4986425;28;21287;-78
2023/07/09 07:27:28;;;;;;;9.77;6.40;;;;;;;29.53;44.48;100733.06;4983650;28;20046;-78
2023/07/09 07:29:54;;;;;;;12.55;6.40;;;;;;;29.33;47.89;100749.09;4986119;28;20062;-79
2023/07/09 07:32:21;;;;;;;7.32;6.00;;;;;;;29.32;47.64;100749.28;4993108;28;20125;-78
2023/07/09 07:34:48;;;;;;;8.25;6.47;;;;;;;29.49;45.36;100720.81;4985203;28;20070;-77
2023/07/09 07:37:19;;;;;;;9.95;6.32;;;;;;;29.89;44.40;100733.19;4980947;28;20042;-77
2023/07/09 07:39:45;;;;;;;9.60;6.20;;;;;;;30.16;43.17;100728.94;5007980;28;20472;-77
2023/07/09 07:42:12;;;;;;;8.80;6.63;;;;;;;30.29;43.21;100726.34;4988571;28;20041;-77
2023/07/09 07:44:38;;;;;;;11.00;6.35;;;;;;;30.54;42.43;100737.81;4989392;28;20472;-78
2023/07/09 07:47:05;;;;;;;12.70;6.40;;;;;;;30.64;43.13;100737.50;4973977;28;20056;-78
2023/07/09 07:49:32;;;;;;;8.57;6.25;;;;;;;30.65;42.30;100740.03;4983092;28;20092;-77
2023/07/09 07:51:58;;;;;;;9.15;6.22;;;;;;;30.59;41.87;100723.56;4984592;28;20074;-77
2023/07/09 07:54:25;;;;;;;10.23;6.13;;;;;;;30.68;41.62;100711.47;5009985;28;20509;-77
2023/07/09 07:56:52;;;;;;;8.75;5.70;;;;;;;30.53;41.30;100733.38;5002027;28;20046;-79
2023/07/09 07:59:18;;;;;;;9.70;6.00;;;;;;;30.32;40.39;100739.63;5006024;28;20446;-78
2023/07/09 08:01:45;;;;;;;7.15;5.38;;;;;;;29.94;40.94;100730.69;5007059;28;20123;-78
2023/07/09 08:04:11;;;;;;;9.32;5.10;;;;;;;29.64;41.81;100724.41;4986070;28;20066;-78
2023/07/09 08:06:38;;;;;;;7.72;5.00;;;;;;;29.77;41.83;100720.16;4986381;28;20450;-76
2023/07/09 08:09:04;;;;;;;7.65;4.97;;;;;;;30.27;40.96;100728.44;4983630;28;20053;-76
2023/07/09 08:11:32;;;;;;;6.30;5.03;;;;;;;30.57;41.24;100725.63;4987927;28;20077;-77
2023/07/09 08:13:59;;;;;;;7.25;5.15;;;;;;;30.47;41.07;100723.19;4989584;28;20050;-77
2023/07/09 08:16:25;;;;;;;6.82;4.78;;;;;;;30.58;40.58;100678.97;4992862;28;20848;-77
2023/07/09 08:18:52;;;;;;;7.57;4.70;;;;;;;31.07;39.64;100702.78;4997262;28;20061;-77
2023/07/09 08:21:19;;;;;;;7.30;5.20;;;;;;;31.39;38.63;100712.31;5018774;28;20645;-77
2023/07/09 08:23:46;;;;;;;6.00;5.10;;;;;;;31.55;38.45;100709.25;5008539;28;20132;-78
2023/07/09 08:26:13;;;;;;;8.13;5.85;;;;;;;31.58;38.75;100684.22;4989146;28;20057;-78
2023/07/09 08:28:39;;;;;;;8.90;5.13;;;;;;;31.98;38.74;100698.16;4984997;28;20057;-77
2023/07/09 08:31:06;;;;;;;11.05;4.95;;;;;;;32.46;37.57;100725.53;4988924;28;20041;-77
2023/07/09 08:33:33;;;;;;;8.88;5.45;;;;;;;32.25;37.22;100701.88;4988698;28;20137;-78
2023/07/09 08:36:00;;;;;;;9.20;5.43;;;;;;;31.97;37.87;100701.94;5003160;28;20045;-76
2023/07/09 08:38:27;;;;;;;8.23;4.90;;;;;;;31.48;38.61;100658.28;4980463;28;20066;-78
2023/07/09 08:41:23;;;;;;;6.53;5.28;;;;;;;31.87;38.61;100723.38;4984339;28;20553;-79
2023/07/09 08:44:01;;;;;;;7.45;4.63;;;;;;;32.12;37.43;100715.47;4989386;28;20045;-78
2023/07/09 08:46:46;;;;;;;8.93;4.88;;;;;;;32.29;36.96;100717.69;4988927;28;20046;-79
2023/07/09 08:49:21;;;;;;;8.10;4.82;;;;;;;32.35;37.06;100711.41;5007970;28;20054;-77
2023/07/09 08:51:50;;;;;;;7.05;4.80;;;;;;;32.40;36.68;100708.88;5014471;28;20080;-78
2023/07/09 08:54:29;;;;;;;8.43;4.80;;;;;;;32.56;36.64;100715.03;4989347;28;20050;-79
2023/07/09 08:57:04;;;;;;;6.72;4.57;;;;;;;32.47;36.36;100710.78;5002452;28;20039;-79
2023/07/09 08:59:31;;;;;;;6.78;4.82;;;;;;;31.95;37.41;100676.66;4986527;28;20053;-77
2023/07/09 09:02:01;;;;;;;6.68;4.65;;;;;;;32.32;36.79;100711.81;4988728;28;20052;-78
2023/07/09 09:04:32;;;;;;;8.38;4.95;;;;;;;32.26;36.69;100696.19;4991449;28;20061;-80
2023/07/09 09:07:39;;;;;;;9.50;5.05;;;;;;;31.26;37.58;100713.06;5005018;28;20215;-78
2023/07/09 09:10:10;;;;;;;6.70;5.05;;;;;;;30.74;39.35;100687.97;4990253;28;20080;-78
2023/07/09 09:12:48;;;;;;;8.98;4.85;;;;;;;30.53;39.70;100654.13;4990428;28;20525;-78
2023/07/09 09:15:18;;;;;;;8.23;4.88;;;;;;;31.08;39.07;100706.34;4983179;28;20069;-78
2023/07/09 09:17:45;;;;;;;7.15;4.90;;;;;;;31.04;38.98;100690.34;4987989;28;20541;-78
2023/07/09 09:20:23;;;;;;;7.22;5.32;;;;;;;31.13;38.84;100709.38;5007690;28;20041;-77
2023/07/09 09:23:13;;;;;;;7.47;5.32;;;;;;;31.26;39.29;100706.75;4990118;28;20418;-76
2023/07/09 09:25:43;;;;;;;8.30;4.82;;;;;;;31.34;38.67;100706.59;4994276;28;20050;-78
2023/07/09 09:28:10;;;;;;;10.32;5.03;;;;;;;31.11;38.19;100687.69;4985840;28;20053;-78
2023/07/09 09:30:36;;;;;;;6.20;5.03;;;;;;;31.10;39.62;100699.69;4992509;28;20048;-78
2023/07/09 09:33:12;;;;;;;7.13;4.70;;;;;;;31.10;39.04;100688.75;4993024;28;20049;-78
2023/07/09 09:35:41;;;;;;;6.03;4.45;;;;;;;31.33;38.84;100697.53;4986566;28;20046;-78
2023/07/09 09:38:19;;;;;;;7.25;4.53;;;;;;;31.47;38.18;100692.16;4997765;28;20056;-77
2023/07/09 09:40:47;;;;;;;5.47;4.70;;;;;;;31.28;38.80;100666.34;4990336;28;20041;-77
2023/07/09 09:43:22;;;;;;;6.32;4.57;;;;;;;31.52;37.94;100674.06;5006270;28;20052;-78
2023/07/09 09:45:50;;;;;;;7.32;4.32;;;;;;;31.94;37.77;100699.63;4988572;28;20073;-78
2023/07/09 09:48:19;;;;;;;7.07;4.40;;;;;;;32.17;36.20;100697.38;4979875;28;20498;-77
2023/07/09 09:50:47;;;;;;;7.88;4.68;;;;;;;32.23;36.62;100671.09;5002969;28;20566;-78
2023/07/09 09:53:21;;;;;;;5.97;4.38;;;;;;;32.57;35.72;100698.38;4977528;28;20147;-78
2023/07/09 09:55:49;;;;;;;8.65;4.20;;;;;;;32.62;36.02;100697.75;4985646;28;20053;-77
2023/07/09 09:58:19;;;;;;;8.38;4.60;;;;;;;32.73;35.71;100706.25;4961187;28;20128;-79
2023/07/09 10:00:52;;;;;;;6.95;4.72;;;;;;;32.84;35.57;100685.56;5003231;28;20525;-77
2023/07/09 10:03:19;;;;;;;6.13;4.22;;;;;;;32.60;35.56;100642.25;4981167;28;20143;-77
2023/07/09 10:05:58;;;;;;;6.00;4.50;;;;;;;32.84;35.61;100666.38;4986224;28;20046;-77
2023/07/09 10:08:40;;;;;;;5.28;4.32;;;;;;;33.04;35.00;100694.66;5009023;28;20068;-77
2023/07/09 10:11:26;;;;;;;8.02;4.70;;;;;;;32.81;34.89;100660.47;5001145;28;20054;-77
2023/07/09 10:13:56;;;;;;;8.52;4.22;;;;;;;32.69;35.33;100662.97;4989155;28;20739;-78
2023/07/09 10:16:37;;;;;;;8.80;4.70;;;;;;;32.99;35.41;100690.84;5009668;28;20518;-78
2023/07/09 10:19:23;;;;;;;6.57;4.82;;;;;;;33.22;34.95;100685.75;4976130;28;20599;-76
2023/07/09 10:21:59;;;;;;;9.15;4.45;;;;;;;33.35;34.26;100685.81;4988769;28;20136;-76
2023/07/09 10:24:53;;;;;;;6.82;4.30;;;;;;;33.44;34.79;100678.16;4984603;28;20474;-77
2023/07/09 10:27:43;;;;;;;4.65;3.92;;;;;;;33.28;34.15;100651.16;4994914;28;20145;-78
2023/07/09 10:30:24;;;;;;;;;;;;;;;33.60;33.92;100674.13;4997584;28;20077;-77
2023/07/09 10:33:13;;;;;;;6.50;4.10;;;;;;;33.60;34.79;100674.13;4981540;28;20013;-78
2023/07/09 10:35:59;;;;;;;;;;;;;;;33.42;34.55;100669.28;4983807;28;20134;-79
2023/07/09 10:38:35;;;;;;;8.13;4.43;;;;;;;33.22;34.66;100662.97;4976438;28;19933;-77
2023/07/09 10:41:05;;;;;;;7.68;4.85;;;;;;;33.25;34.57;100657.09;4983829;28;20065;-77
2023/07/09 10:43:58;;;;;;;6.80;3.83;;;;;;;33.37;34.55;100647.16;4999570;28;20053;-78
2023/07/09 10:46:31;;;;;;;7.00;4.22;;;;;;;33.58;33.66;100640.53;4984739;28;20129;-79
2023/07/09 10:49:00;;;;;;;8.45;3.97;;;;;;;33.78;32.81;100633.94;4976385;28;20097;-78
2023/07/09 10:51:39;;;;;;;6.30;3.80;;;;;;;33.88;33.38;100646.34;4980935;28;20082;-77
2023/07/09 10:54:30;;;;;;;5.00;3.95;;;;;;;34.05;32.95;100639.31;4978739;28;20046;-77
2023/07/09 10:57:21;;;;;;;6.47;4.07;;;;;;;34.21;32.45;100647.03;4997589;28;20504;-77
2023/07/09 10:59:49;;;;;;;7.30;4.60;;;;;;;34.10;32.95;100636.75;4967817;28;20053;-78
2023/07/09 11:02:26;;;;;;;6.85;4.25;;;;;;;33.97;32.81;100617.59;4992228;28;20150;-79
2023/07/09 11:04:56;;;;;;;6.88;4.00;;;;;;;34.23;32.19;100633.06;4993646;28;20709;-78
2023/07/09 11:07:30;;;;;;;6.90;4.25;;;;;;;34.29;32.41;100619.34;4979470;28;20141;-79
2023/07/09 11:09:58;;;;;;;8.00;4.00;;;;;;;34.62;32.43;100632.00;4993753;28;20050;-77
2023/07/09 11:12:40;;;;;;;5.60;3.60;;;;;;;34.61;31.12;100620.16;4978099;28;20061;-77
2023/07/09 11:15:14;;;;;;;7.47;3.90;;;;;;;34.73;31.19;100623.88;4983877;28;20042;-77
2023/07/09 11:17:44;;;;;;;6.13;3.67;;;;;;;34.61;31.20;100580.81;4979614;28;20132;-77
2023/07/09 11:20:25;;;;;;;5.22;4.07;;;;;;;34.81;31.46;100609.00;4997550;28;20073;-79
2023/07/09 11:23:06;;;;;;;5.03;3.90;;;;;;;34.57;31.24;100621.66;4986695;28;20045;-78
2023/07/09 11:26:01;;;;;;;5.43;3.88;;;;;;;34.74;30.96;100619.19;4985408;28;20149;-76
2023/07/09 11:28:35;;;;;;;7.57;3.67;;;;;;;34.87;30.17;100613.63;4996918;28;20055;-79
2023/07/09 11:31:16;;;;;;;5.82;3.53;;;;;;;35.04;30.42;100614.72;4981192;28;20061;-77
2023/07/09 11:33:48;;;;;;;4.88;3.92;;;;;;;35.06;30.03;100596.06;4987400;28;20731;-77
2023/07/09 11:36:30;;;;;;;6.85;3.97;;;;;;;35.24;30.05;100598.00;4979010;28;20043;-77